Belle Chasse — WDG2912 — position and weather

sailwx.info

Track history (hours):
 
Tides and Currents Weather Stations Pressure Air Temp Water Temp Dewpoint Dewpoint Depression Visibility Wind Speed Wind Dir Waves Ship Positions

Belle Chasse

Owner: Higman Barge Lines, Inc, Orange, TX. More information available from US FCC via Universal Licensing System and Coast Guard Vessel Documentation Center.

Last reported at 2015-Jan-13 18:26 UTC. Time now 2015-Jan-31 07:08 UTC.
Position N 29°22' W 094°50'.
Warning: this ship's position is 17 days out of date.

Length 26 m; draft 3 m.

Type: Towing. MMSI: 367520550.

Date/timePositionNaut miles runAvg speedWind from/ knotsBaromVisibWave heightAir tempDewpointWater temp
2015-Jan-13 18:26N 29°22' W 094°50'6 0.1
2015-Jan-11 21:29N 29°17' W 094°53'4 4.2
2015-Jan-11 20:32N 29°17' W 094°58'4 2.9
2015-Jan-11 19:04N 29°18' W 094°53'  
2015-Jan-07 18:10N 29°24' W 094°45'0 0.0
2015-Jan-07 17:32N 29°24' W 094°45'0 0.0
2015-Jan-07 16:06N 29°24' W 094°45'0 0.4
2015-Jan-07 15:04N 29°23' W 094°46'1 0.8
2015-Jan-07 14:26N 29°24' W 094°45'0 0.0
2015-Jan-07 12:20N 29°24' W 094°45'0 0.0
2015-Jan-07 10:17N 29°24' W 094°45'0 0.0
2015-Jan-07 09:26N 29°24' W 094°45'0 0.0
2015-Jan-07 05:32N 29°24' W 094°45'0 0.0
2015-Jan-07 04:14N 29°24' W 094°45'0 0.0
2015-Jan-07 03:26N 29°24' W 094°45'0 0.0
2015-Jan-06 16:10N 29°24' W 094°45'0 0.0
2015-Jan-06 13:31N 29°24' W 094°45'0 0.0
2015-Jan-06 12:26N 29°24' W 094°45'0 0.0
2015-Jan-06 11:26N 29°24' W 094°45'12 6.2
2015-Jan-06 09:26N 29°17' W 094°57'  
Track history (hours):
 
Tides and Currents Weather Stations Pressure Air Temp Water Temp Dewpoint Dewpoint Depression Visibility Wind Speed Wind Dir Waves Ship Positions

Belle Chasse

Owner: Higman Barge Lines, Inc, Orange, TX. More information available from US FCC via Universal Licensing System and Coast Guard Vessel Documentation Center.

Last reported at 2015-Jan-13 18:26 UTC. Time now 2015-Jan-31 07:08 UTC.
Position N 29°22' W 094°50'.
Warning: this ship's position is 17 days out of date.

Length 26 m; draft 3 m.

Type: Towing. MMSI: 367520550.

Date/timePositionNaut miles runAvg speedWind from/ knotsBaromVisibWave heightAir tempDewpointWater temp
2015-Jan-13 18:26N 29°22' W 094°50'6 0.1
2015-Jan-11 21:29N 29°17' W 094°53'4 4.2
2015-Jan-11 20:32N 29°17' W 094°58'4 2.9
2015-Jan-11 19:04N 29°18' W 094°53'  
2015-Jan-07 18:10N 29°24' W 094°45'0 0.0
2015-Jan-07 17:32N 29°24' W 094°45'0 0.0
2015-Jan-07 16:06N 29°24' W 094°45'0 0.4
2015-Jan-07 15:04N 29°23' W 094°46'1 0.8
2015-Jan-07 14:26N 29°24' W 094°45'0 0.0
2015-Jan-07 12:20N 29°24' W 094°45'0 0.0
2015-Jan-07 10:17N 29°24' W 094°45'0 0.0
2015-Jan-07 09:26N 29°24' W 094°45'0 0.0
2015-Jan-07 05:32N 29°24' W 094°45'0 0.0
2015-Jan-07 04:14N 29°24' W 094°45'0 0.0
2015-Jan-07 03:26N 29°24' W 094°45'0 0.0
2015-Jan-06 16:10N 29°24' W 094°45'0 0.0
2015-Jan-06 13:31N 29°24' W 094°45'0 0.0
2015-Jan-06 12:26N 29°24' W 094°45'0 0.0
2015-Jan-06 11:26N 29°24' W 094°45'12 6.2
2015-Jan-06 09:26N 29°17' W 094°57'  

Dump ship's entire track history